Terminal Aerodrome Forecast
Issued by NWS Atlanta, GA

Home | Current Version | Previous Version | Text Only | Print | Product List | Glossary On
Versions: 1 2 3 4 5 6 7 8 9 10 11 12 13 14 15 16
000
FTUS42 KFFC 291135
TAFMCN
TAF
KMCN 291135Z 2912/3012 28005KT P6SM FEW080 BKN250
     FM291500 26008KT P6SM SCT035 SCT150
     FM291800 26010KT P6SM BKN050
      TEMPO 2919/2923 VRB10G18KT 4SM -TSRA BR BKN025CB
     FM300000 24006KT P6SM VCTS SCT050CB BKN120
     FM300400 26004KT P6SM BKN050
     FM300900 25005KT P6SM BKN015=

USA.gov is the U.S. government's official web portal to all federal, state and local government web resources and services.